createdAt,value
2022-08-19T00:02:20.422Z,17.98
2022-08-19T00:04:49.539Z,17.93
2022-08-19T00:07:17.241Z,17.95
2022-08-19T00:09:46.468Z,17.95
2022-08-19T00:12:14.576Z,17.91
2022-08-19T00:14:42.275Z,17.93
2022-08-19T00:17:10.786Z,17.97
2022-08-19T00:19:38.692Z,18.00
2022-08-19T00:22:07.176Z,18.03
2022-08-19T00:24:35.542Z,18.01
2022-08-19T00:27:26.238Z,18.02
2022-08-19T00:29:52.952Z,18.00
2022-08-19T00:32:20.856Z,18.00
2022-08-19T00:34:48.518Z,18.01
2022-08-19T00:37:16.236Z,17.95
2022-08-19T00:39:43.954Z,17.91
2022-08-19T00:42:16.531Z,17.89
2022-08-19T00:44:44.285Z,17.90
2022-08-19T00:47:14.207Z,17.92
2022-08-19T00:49:46.580Z,17.93
2022-08-19T00:52:15.158Z,17.95
2022-08-19T00:54:43.904Z,17.95
2022-08-19T00:57:14.663Z,17.98
2022-08-19T01:00:01.092Z,18.03
2022-08-19T01:02:32.020Z,18.01
2022-08-19T01:04:59.921Z,18.05
2022-08-19T01:07:27.605Z,18.07
2022-08-19T01:09:55.839Z,18.04
2022-08-19T01:12:25.087Z,17.99
2022-08-19T01:14:53.556Z,17.97
2022-08-19T01:17:21.519Z,17.92
2022-08-19T01:19:49.375Z,17.87
2022-08-19T01:22:28.789Z,17.90
2022-08-19T01:25:00.693Z,17.95
2022-08-19T01:27:29.576Z,17.98
2022-08-19T01:30:09.716Z,17.99
2022-08-19T01:32:37.517Z,18.02
2022-08-19T01:35:05.941Z,17.98
2022-08-19T01:37:44.758Z,17.95
2022-08-19T01:40:14.042Z,17.96
2022-08-19T01:42:42.105Z,17.97
2022-08-19T01:45:10.475Z,17.98
2022-08-19T01:47:38.671Z,17.98
2022-08-19T01:50:08.097Z,17.96
2022-08-19T01:52:37.961Z,17.95
2022-08-19T01:55:07.428Z,17.97
2022-08-19T01:57:36.550Z,17.98
2022-08-19T02:00:08.016Z,17.95
2022-08-19T02:02:35.665Z,17.96
2022-08-19T02:05:03.385Z,17.96
2022-08-19T02:07:31.070Z,17.95
2022-08-19T02:09:58.747Z,17.97
2022-08-19T02:12:30.795Z,17.99
2022-08-19T02:15:00.646Z,17.95
2022-08-19T02:17:29.830Z,17.91
2022-08-19T02:19:58.282Z,17.88
2022-08-19T02:22:26.485Z,17.86
2022-08-19T02:24:54.369Z,17.87
2022-08-19T02:27:22.109Z,17.90
2022-08-19T02:29:51.156Z,17.86
2022-08-19T02:32:20.894Z,17.82
2022-08-19T02:34:48.741Z,17.80
2022-08-19T02:37:30.493Z,17.84
2022-08-19T02:40:03.360Z,17.85
2022-08-19T02:42:41.717Z,17.86
2022-08-19T02:45:10.254Z,17.86
2022-08-19T02:47:39.337Z,17.85
2022-08-19T02:50:08.435Z,17.85
2022-08-19T02:52:36.460Z,17.81
2022-08-19T02:55:04.784Z,17.82
2022-08-19T02:57:33.421Z,17.83
2022-08-19T03:00:02.400Z,17.80
2022-08-19T03:02:31.040Z,17.78
2022-08-19T03:05:00.151Z,17.81
2022-08-19T03:07:27.881Z,17.81
2022-08-19T03:09:55.578Z,17.81
2022-08-19T03:12:23.249Z,17.81
2022-08-19T03:14:51.957Z,17.84
2022-08-19T03:17:19.625Z,17.84
2022-08-19T03:19:47.319Z,17.85
2022-08-19T03:22:16.461Z,17.84
2022-08-19T03:24:44.779Z,17.80
2022-08-19T03:27:13.284Z,17.75
2022-08-19T03:29:43.233Z,17.78
2022-08-19T03:32:31.697Z,17.76
2022-08-19T03:35:00.619Z,17.75
2022-08-19T03:37:29.762Z,17.80
2022-08-19T03:39:57.517Z,17.75
2022-08-19T03:42:38.928Z,17.79
2022-08-19T03:45:13.755Z,17.74
2022-08-19T03:47:41.401Z,17.75
2022-08-19T03:50:10.173Z,17.68
2022-08-19T03:52:40.375Z,17.70
2022-08-19T03:55:13.008Z,17.72
2022-08-19T03:57:40.637Z,17.74
2022-08-19T04:00:13.179Z,17.75
2022-08-19T04:02:41.829Z,17.76
2022-08-19T04:05:10.138Z,17.80
2022-08-19T04:07:39.143Z,17.78
2022-08-19T04:10:07.337Z,17.77
2022-08-19T04:12:38.770Z,17.81
2022-08-19T04:15:07.440Z,17.82
2022-08-19T04:17:35.148Z,17.84
2022-08-19T04:20:07.127Z,17.84
2022-08-19T04:22:34.996Z,17.79
2022-08-19T04:25:04.532Z,17.81
2022-08-19T04:27:32.253Z,17.82
2022-08-19T04:29:59.929Z,17.81
2022-08-19T04:32:27.702Z,17.86
2022-08-19T04:35:02.640Z,17.89
2022-08-19T04:37:45.408Z,17.93
2022-08-19T04:40:32.362Z,17.95
2022-08-19T04:43:00.022Z,17.99
2022-08-19T04:45:27.679Z,17.99
2022-08-19T04:48:26.317Z,18.00
2022-08-19T04:50:47.086Z,18.01
2022-08-19T04:53:14.880Z,18.04
2022-08-19T04:55:44.576Z,18.04
2022-08-19T04:58:12.364Z,18.04
2022-08-19T05:00:40.911Z,18.04
2022-08-19T05:03:09.727Z,18.05
2022-08-19T05:05:44.852Z,18.06
2022-08-19T05:08:14.236Z,18.06
2022-08-19T05:10:45.561Z,18.05
2022-08-19T05:13:13.325Z,18.03
2022-08-19T05:15:41.080Z,18.01
2022-08-19T05:18:26.231Z,18.01
2022-08-19T05:21:11.504Z,18.03
2022-08-19T05:23:39.305Z,18.05
2022-08-19T05:26:10.350Z,18.08
2022-08-19T05:28:38.029Z,18.09
2022-08-19T05:31:05.935Z,18.12
2022-08-19T05:33:33.735Z,18.12
2022-08-19T05:36:03.262Z,18.14
2022-08-19T05:38:31.074Z,18.13
2022-08-19T05:40:59.378Z,18.12
2022-08-19T05:43:28.469Z,18.10
2022-08-19T05:45:56.148Z,18.11
2022-08-19T05:48:23.916Z,18.09
2022-08-19T05:50:51.781Z,18.08
2022-08-19T05:53:20.196Z,18.05
2022-08-19T05:55:47.832Z,17.97
2022-08-19T05:58:15.737Z,18.02
2022-08-19T06:00:45.960Z,18.08
2022-08-19T06:03:13.690Z,18.11
2022-08-19T06:05:50.317Z,18.13
2022-08-19T06:08:20.723Z,18.14
2022-08-19T06:11:15.782Z,18.17
2022-08-19T06:13:43.777Z,18.18
2022-08-19T06:16:12.756Z,18.22
2022-08-19T06:18:40.493Z,18.22
2022-08-19T06:21:08.157Z,18.23
2022-08-19T06:23:35.869Z,18.25
2022-08-19T06:26:03.697Z,18.27
2022-08-19T06:28:31.446Z,18.26
2022-08-19T06:30:59.106Z,18.23
2022-08-19T06:33:28.269Z,18.25
2022-08-19T06:35:58.068Z,18.30
2022-08-19T06:38:25.826Z,18.30
2022-08-19T06:40:53.734Z,18.30
2022-08-19T06:43:21.415Z,18.25
2022-08-19T06:45:55.933Z,18.25
2022-08-19T06:48:24.478Z,18.24
2022-08-19T06:50:55.346Z,18.26
2022-08-19T06:53:23.099Z,18.22
2022-08-19T06:55:58.420Z,18.20
2022-08-19T06:58:26.082Z,18.17
2022-08-19T07:00:54.386Z,18.10
2022-08-19T07:03:22.144Z,18.09
2022-08-19T07:05:49.777Z,18.04
2022-08-19T07:08:19.280Z,17.98
2022-08-19T07:10:47.839Z,17.96
2022-08-19T07:13:15.859Z,18.01
2022-08-19T07:15:43.809Z,18.00
2022-08-19T07:18:12.026Z,18.00
2022-08-19T07:20:40.321Z,18.03
2022-08-19T07:23:10.024Z,18.05
2022-08-19T07:25:52.744Z,18.12
2022-08-19T07:28:24.103Z,18.11
2022-08-19T07:30:52.935Z,18.15
2022-08-19T07:33:20.766Z,18.08
2022-08-19T07:35:48.491Z,18.14
2022-08-19T07:38:17.367Z,18.19
2022-08-19T07:40:47.306Z,18.22
2022-08-19T07:43:17.923Z,18.24
2022-08-19T07:45:46.352Z,18.19
2022-08-19T07:48:15.402Z,18.19
2022-08-19T07:50:43.061Z,18.24
2022-08-19T07:53:10.784Z,18.31
2022-08-19T07:55:41.794Z,18.39
2022-08-19T07:58:13.543Z,18.41
2022-08-19T08:00:41.253Z,18.49
2022-08-19T08:03:09.583Z,18.55
2022-08-19T08:05:53.858Z,18.58
2022-08-19T08:08:44.382Z,18.62
2022-08-19T08:11:17.539Z,18.64
2022-08-19T08:14:01.020Z,18.61
2022-08-19T08:16:32.217Z,18.68
2022-08-19T08:19:00.325Z,18.73
2022-08-19T08:21:29.016Z,18.75
2022-08-19T08:23:57.127Z,18.80
2022-08-19T08:26:25.966Z,18.84
2022-08-19T08:28:55.374Z,18.79
2022-08-19T08:31:24.413Z,18.78
2022-08-19T08:33:52.192Z,18.80
2022-08-19T08:36:19.969Z,18.82
2022-08-19T08:38:48.000Z,18.83
2022-08-19T08:41:22.960Z,18.84
2022-08-19T08:43:53.135Z,18.84
2022-08-19T08:46:30.553Z,18.83
2022-08-19T08:49:06.668Z,18.85
2022-08-19T08:51:36.819Z,18.87
2022-08-19T08:54:07.682Z,18.85
2022-08-19T08:56:40.036Z,18.83
2022-08-19T08:59:22.859Z,18.80
2022-08-19T09:01:51.904Z,18.79
2022-08-19T09:04:20.049Z,18.80
2022-08-19T09:06:53.887Z,18.75
2022-08-19T09:09:31.963Z,18.75
2022-08-19T09:12:07.097Z,18.72
2022-08-19T09:14:50.713Z,18.71
2022-08-19T09:17:31.686Z,18.70
2022-08-19T09:20:05.667Z,18.69
2022-08-19T09:22:33.580Z,18.68
2022-08-19T09:25:01.229Z,18.72
2022-08-19T09:27:42.016Z,18.74
2022-08-19T09:30:14.013Z,18.75
2022-08-19T09:32:43.984Z,18.79
2022-08-19T09:35:12.355Z,18.79
2022-08-19T09:37:40.574Z,18.79
2022-08-19T09:40:09.637Z,18.80
2022-08-19T09:42:49.781Z,18.81
2022-08-19T09:45:22.254Z,18.83
2022-08-19T09:47:52.256Z,18.85
2022-08-19T09:50:21.928Z,18.87
2022-08-19T09:52:54.149Z,18.88
2022-08-19T09:55:25.070Z,18.86
2022-08-19T09:58:00.396Z,18.87
2022-08-19T10:00:28.469Z,18.85
2022-08-19T10:02:57.500Z,18.80
2022-08-19T10:05:42.727Z,18.78
2022-08-19T10:08:13.129Z,18.80
2022-08-19T10:10:44.093Z,18.78
2022-08-19T10:13:14.580Z,18.78
2022-08-19T10:15:47.828Z,18.80
2022-08-19T10:18:19.315Z,18.79
2022-08-19T10:20:51.330Z,18.79
2022-08-19T10:23:20.813Z,18.80
2022-08-19T10:25:49.088Z,18.83
2022-08-19T10:28:19.405Z,18.88
2022-08-19T10:30:47.982Z,18.90
2022-08-19T10:33:38.592Z,18.95
2022-08-19T10:36:07.438Z,18.95
2022-08-19T10:38:36.254Z,18.98
2022-08-19T10:41:12.761Z,19.07
2022-08-19T10:43:40.980Z,19.05
2022-08-19T10:46:09.538Z,19.14
2022-08-19T10:48:46.211Z,19.22
2022-08-19T10:51:32.152Z,19.20
2022-08-19T10:54:00.473Z,19.15
2022-08-19T10:56:46.411Z,19.13
2022-08-19T10:59:15.138Z,19.05
2022-08-19T11:01:43.423Z,19.07
2022-08-19T11:04:14.523Z,19.07
2022-08-19T11:06:44.297Z,19.16
2022-08-19T11:09:12.864Z,19.24
2022-08-19T11:11:41.899Z,19.31
2022-08-19T11:14:10.394Z,19.12
2022-08-19T11:16:39.109Z,19.19
2022-08-19T11:19:08.929Z,19.14
2022-08-19T11:21:40.512Z,18.93
2022-08-19T11:24:10.675Z,19.12
2022-08-19T11:26:40.307Z,19.01
2022-08-19T11:29:12.292Z,19.02
2022-08-19T11:31:41.238Z,18.95
2022-08-19T11:34:10.901Z,18.99
2022-08-19T11:36:41.882Z,19.05
2022-08-19T11:39:14.801Z,19.14
2022-08-19T11:41:42.761Z,19.06
2022-08-19T11:44:10.610Z,19.18
2022-08-19T11:46:39.418Z,19.14
2022-08-19T11:49:13.210Z,19.07
2022-08-19T11:51:44.129Z,19.17
2022-08-19T11:54:13.732Z,19.28
2022-08-19T11:56:41.795Z,19.15
2022-08-19T11:59:14.454Z,19.29
2022-08-19T12:01:43.609Z,19.45
2022-08-19T12:04:12.207Z,19.57
2022-08-19T12:06:42.093Z,19.63
2022-08-19T12:09:12.192Z,19.54
2022-08-19T12:11:40.461Z,19.53
2022-08-19T12:14:09.221Z,19.37
2022-08-19T12:16:50.947Z,19.35
2022-08-19T12:19:22.122Z,19.41
2022-08-19T12:21:50.748Z,19.59
2022-08-19T12:24:23.916Z,19.80
2022-08-19T12:26:52.927Z,19.82
2022-08-19T12:29:23.902Z,19.65
2022-08-19T12:31:52.156Z,19.80
2022-08-19T12:34:21.022Z,19.87
2022-08-19T12:36:50.227Z,19.72
2022-08-19T12:39:19.622Z,19.86
2022-08-19T12:41:51.388Z,19.95
2022-08-19T12:44:29.344Z,20.06
2022-08-19T12:46:57.457Z,20.19
2022-08-19T12:49:53.896Z,20.17
2022-08-19T12:52:16.120Z,20.11
2022-08-19T12:54:45.467Z,20.16
2022-08-19T12:57:13.393Z,20.15
2022-08-19T12:59:42.337Z,20.21
2022-08-19T13:02:10.250Z,20.15
2022-08-19T13:04:41.521Z,19.99
2022-08-19T13:07:09.997Z,20.05
2022-08-19T13:09:37.933Z,20.11
2022-08-19T13:12:08.709Z,20.11
2022-08-19T13:14:36.961Z,20.00
2022-08-19T13:17:06.690Z,19.73
2022-08-19T13:19:34.605Z,19.69
2022-08-19T13:22:02.232Z,19.80
2022-08-19T13:24:33.483Z,19.98
2022-08-19T13:27:01.685Z,19.96
2022-08-19T13:29:48.367Z,20.10
2022-08-19T13:32:33.610Z,20.25
2022-08-19T13:35:01.857Z,20.44
2022-08-19T13:37:42.853Z,20.40
2022-08-19T13:40:13.814Z,20.35
2022-08-19T13:42:41.662Z,20.43
2022-08-19T13:45:11.551Z,20.65
2022-08-19T13:47:43.160Z,20.65
2022-08-19T13:50:11.713Z,20.76
2022-08-19T13:52:39.633Z,20.91
2022-08-19T13:55:08.284Z,20.62
2022-08-19T13:57:36.395Z,20.66
2022-08-19T14:00:12.705Z,20.84
2022-08-19T14:02:40.598Z,21.08
2022-08-19T14:05:11.281Z,21.20
2022-08-19T14:07:38.995Z,21.27
2022-08-19T14:10:08.446Z,21.25
2022-08-19T14:12:36.169Z,21.15
2022-08-19T14:15:05.270Z,21.18
2022-08-19T14:17:35.823Z,21.01
2022-08-19T14:20:10.937Z,21.09
2022-08-19T14:22:41.233Z,21.10
2022-08-19T14:25:11.873Z,21.18
2022-08-19T14:27:41.686Z,21.16
2022-08-19T14:30:11.034Z,21.03
2022-08-19T14:32:40.094Z,20.94
2022-08-19T14:35:09.236Z,20.92
2022-08-19T14:37:37.174Z,21.02
2022-08-19T14:40:14.383Z,21.19
2022-08-19T14:42:42.338Z,21.21
2022-08-19T14:45:11.106Z,21.18
2022-08-19T14:47:40.851Z,21.18
2022-08-19T14:50:18.016Z,21.16
2022-08-19T14:52:46.381Z,21.31
2022-08-19T14:55:14.048Z,21.16
2022-08-19T14:57:42.555Z,20.86
2022-08-19T15:00:13.780Z,21.02
2022-08-19T15:02:45.052Z,20.90
2022-08-19T15:05:13.177Z,20.67
2022-08-19T15:07:41.307Z,20.60
2022-08-19T15:10:11.658Z,20.58
2022-08-19T15:12:41.166Z,20.34
2022-08-19T15:15:13.573Z,20.41
2022-08-19T15:17:45.466Z,20.18
2022-08-19T15:20:18.060Z,20.19
2022-08-19T15:22:45.937Z,20.04
2022-08-19T15:25:15.779Z,20.04
2022-08-19T15:27:44.247Z,19.98
2022-08-19T15:30:13.414Z,19.95
2022-08-19T15:32:46.168Z,19.98
2022-08-19T15:35:16.264Z,20.03
2022-08-19T15:37:44.553Z,20.13
2022-08-19T15:40:13.026Z,20.13
2022-08-19T15:42:44.710Z,20.16
2022-08-19T15:45:14.787Z,20.01
2022-08-19T15:47:44.055Z,20.04
2022-08-19T15:50:13.738Z,19.98
2022-08-19T15:52:49.364Z,20.03
2022-08-19T15:55:32.653Z,20.10
2022-08-19T15:58:27.878Z,19.86
2022-08-19T16:01:13.538Z,19.91
2022-08-19T16:04:00.192Z,19.97
2022-08-19T16:06:27.913Z,20.01
2022-08-19T16:08:56.477Z,19.93
2022-08-19T16:11:29.320Z,19.95
2022-08-19T16:13:59.080Z,19.99
2022-08-19T16:16:31.086Z,19.96
2022-08-19T16:19:11.865Z,19.89
2022-08-19T16:21:41.820Z,19.87
2022-08-19T16:24:12.035Z,19.85
2022-08-19T16:26:40.276Z,19.87
2022-08-19T16:29:13.000Z,19.87
2022-08-19T16:31:41.891Z,19.86
2022-08-19T16:34:11.506Z,19.86
2022-08-19T16:36:42.042Z,19.84
2022-08-19T16:39:30.744Z,19.78
2022-08-19T16:41:58.400Z,19.76
2022-08-19T16:44:29.559Z,19.75
2022-08-19T16:46:59.541Z,19.67
2022-08-19T16:49:55.290Z,19.62
2022-08-19T16:52:17.870Z,19.55
2022-08-19T16:54:45.553Z,19.49
2022-08-19T16:57:13.923Z,19.48
2022-08-19T16:59:43.675Z,19.47
2022-08-19T17:02:16.403Z,19.48
2022-08-19T17:04:57.369Z,19.49
2022-08-19T17:07:26.910Z,19.50
2022-08-19T17:09:55.446Z,19.43
2022-08-19T17:12:23.289Z,19.38
2022-08-19T17:14:58.478Z,19.28
2022-08-19T17:17:29.127Z,19.24
2022-08-19T17:19:59.048Z,19.28
2022-08-19T17:22:26.998Z,19.23
2022-08-19T17:24:57.709Z,19.19
2022-08-19T17:27:26.653Z,19.13
2022-08-19T17:29:54.312Z,19.06
2022-08-19T17:32:25.101Z,18.96
2022-08-19T17:34:54.021Z,18.93
2022-08-19T17:37:23.278Z,18.72
2022-08-19T17:39:50.984Z,18.66
2022-08-19T17:42:18.723Z,18.68
2022-08-19T17:44:50.804Z,18.50
2022-08-19T17:47:19.399Z,18.44
2022-08-19T17:49:47.177Z,18.32
2022-08-19T17:52:14.872Z,18.13
2022-08-19T17:54:44.005Z,18.08
2022-08-19T17:57:11.755Z,18.01
2022-08-19T17:59:39.368Z,17.94
2022-08-19T18:02:10.048Z,18.00
2022-08-19T18:04:38.783Z,18.00
2022-08-19T18:07:06.618Z,18.06
2022-08-19T18:09:41.480Z,18.05
2022-08-19T18:12:11.979Z,18.10
2022-08-19T18:14:40.816Z,18.12
2022-08-19T18:17:10.752Z,18.05
2022-08-19T18:19:41.667Z,18.07
2022-08-19T18:22:11.225Z,18.06
2022-08-19T18:24:39.291Z,18.05
2022-08-19T18:27:07.275Z,18.03
2022-08-19T18:29:38.151Z,18.01
2022-08-19T18:32:06.634Z,18.03
2022-08-19T18:34:36.953Z,18.00
2022-08-19T18:37:04.871Z,17.89
2022-08-19T18:39:50.048Z,17.80
2022-08-19T18:42:36.223Z,17.83
2022-08-19T18:45:23.456Z,17.71
2022-08-19T18:48:18.447Z,17.64
2022-08-19T18:50:56.255Z,17.54
2022-08-19T18:53:24.150Z,17.50
2022-08-19T18:55:53.799Z,17.43
2022-08-19T18:58:25.906Z,17.51
2022-08-19T19:00:57.170Z,17.47
2022-08-19T19:03:25.700Z,17.40
2022-08-19T19:05:53.716Z,17.44
2022-08-19T19:08:26.911Z,17.40
2022-08-19T19:10:55.710Z,17.36
2022-08-19T19:13:23.390Z,17.34
2022-08-19T19:15:51.582Z,17.33
2022-08-19T19:18:20.578Z,17.33
2022-08-19T19:20:48.180Z,17.36
2022-08-19T19:23:15.793Z,17.22
2022-08-19T19:25:51.059Z,17.20
2022-08-19T19:28:25.618Z,17.22
2022-08-19T19:30:54.152Z,17.18
2022-08-19T19:33:23.096Z,17.10
2022-08-19T19:35:50.735Z,17.12
2022-08-19T19:38:18.594Z,17.16
2022-08-19T19:40:46.533Z,17.21
2022-08-19T19:43:18.389Z,17.23
2022-08-19T19:45:48.170Z,17.18
2022-08-19T19:48:16.550Z,17.15
2022-08-19T19:50:53.896Z,17.14
2022-08-19T19:53:24.004Z,17.09
2022-08-19T19:55:54.770Z,17.14
2022-08-19T19:58:28.361Z,17.20
2022-08-19T20:00:56.795Z,17.25
2022-08-19T20:03:24.648Z,17.25
2022-08-19T20:05:53.638Z,17.28
2022-08-19T20:08:40.348Z,17.27
2022-08-19T20:11:08.307Z,17.26
2022-08-19T20:13:36.139Z,17.21
2022-08-19T20:16:04.440Z,17.21
2022-08-19T20:18:32.127Z,17.25
2022-08-19T20:21:01.695Z,17.28
2022-08-19T20:23:29.398Z,17.31
2022-08-19T20:25:57.204Z,17.34
2022-08-19T20:28:24.899Z,17.34
2022-08-19T20:30:53.512Z,17.34
2022-08-19T20:33:21.221Z,17.38
2022-08-19T20:35:48.822Z,17.37
2022-08-19T20:38:17.830Z,17.37
2022-08-19T20:40:46.366Z,17.36
2022-08-19T20:43:15.319Z,17.37
2022-08-19T20:45:43.035Z,17.40
2022-08-19T20:48:12.416Z,17.41
2022-08-19T20:50:40.345Z,17.44
2022-08-19T20:53:13.324Z,17.40
2022-08-19T20:55:44.339Z,17.41
2022-08-19T20:58:13.519Z,17.43
2022-08-19T21:00:43.786Z,17.40
2022-08-19T21:03:11.494Z,17.37
2022-08-19T21:05:39.581Z,17.39
2022-08-19T21:08:09.052Z,17.38
2022-08-19T21:10:40.545Z,17.40
2022-08-19T21:13:11.403Z,17.38
2022-08-19T21:15:40.654Z,17.36
2022-08-19T21:18:08.364Z,17.34
2022-08-19T21:20:36.004Z,17.34
2022-08-19T21:23:04.478Z,17.36
2022-08-19T21:25:32.244Z,17.37
2022-08-19T21:28:00.144Z,17.38
2022-08-19T21:30:29.207Z,17.40
2022-08-19T21:32:57.044Z,17.37
2022-08-19T21:35:24.818Z,17.36
2022-08-19T21:37:52.516Z,17.37
2022-08-19T21:40:20.433Z,17.39
2022-08-19T21:42:48.139Z,17.39
2022-08-19T21:45:17.364Z,17.34
2022-08-19T21:47:46.381Z,17.35
2022-08-19T21:50:14.231Z,17.38
2022-08-19T21:52:42.251Z,17.31
2022-08-19T21:55:10.949Z,17.30
2022-08-19T21:57:41.491Z,17.30
2022-08-19T22:00:14.072Z,17.29
2022-08-19T22:02:42.884Z,17.32
2022-08-19T22:05:11.983Z,17.36
2022-08-19T22:07:39.621Z,17.39
2022-08-19T22:10:08.283Z,17.41
2022-08-19T22:12:37.651Z,17.43
2022-08-19T22:15:07.048Z,17.43
2022-08-19T22:17:34.680Z,17.43
2022-08-19T22:20:02.383Z,17.44
2022-08-19T22:22:33.356Z,17.45
2022-08-19T22:25:04.521Z,17.46
2022-08-19T22:27:32.133Z,17.41
2022-08-19T22:29:59.848Z,17.33
2022-08-19T22:32:28.776Z,17.29
2022-08-19T22:34:58.652Z,17.25
2022-08-19T22:37:27.033Z,17.27
2022-08-19T22:39:56.129Z,17.22
2022-08-19T22:42:25.239Z,17.19
2022-08-19T22:44:58.969Z,17.17
2022-08-19T22:47:27.155Z,17.17
2022-08-19T22:49:59.735Z,17.16
2022-08-19T22:52:26.425Z,17.13
2022-08-19T22:54:59.720Z,17.12
2022-08-19T22:57:28.229Z,17.14
2022-08-19T23:00:00.972Z,17.15
2022-08-19T23:02:31.326Z,17.17
2022-08-19T23:05:02.146Z,17.15
2022-08-19T23:07:29.860Z,17.15
2022-08-19T23:09:58.928Z,17.17
2022-08-19T23:12:30.553Z,17.17
2022-08-19T23:15:02.681Z,17.18
2022-08-19T23:17:30.158Z,17.17
2022-08-19T23:19:57.840Z,17.16
2022-08-19T23:22:25.544Z,17.16
2022-08-19T23:24:56.032Z,17.12
2022-08-19T23:27:42.645Z,17.12
2022-08-19T23:30:27.064Z,17.12
2022-08-19T23:32:56.045Z,17.12
2022-08-19T23:35:23.973Z,17.10
2022-08-19T23:37:52.185Z,17.12
2022-08-19T23:40:21.954Z,17.09
2022-08-19T23:42:51.954Z,17.09
2022-08-19T23:45:23.838Z,17.09
2022-08-19T23:47:52.475Z,17.06
2022-08-19T23:50:21.831Z,17.04
2022-08-19T23:52:51.136Z,17.02
2022-08-19T23:55:20.113Z,17.04
2022-08-19T23:57:47.760Z,17.04
